This is the latest recevied weather packets stored in our database for station/object CE2KVL-1. If no packets are shown the sender has not sent any weather packets the latest 10 day(s).
| Time | Temp. | Humidity | Pressure | Rain* | Wind** | Luminosity | Snow |
|---|---|---|---|---|---|---|---|
| 1778026683 | 16.11° C | 99% | 1019.7 hPa | - | - | - | - |
| 1778026384 | 16.11° C | 10% | - | - | - | - | - |
| 1778026083 | 16.11° C | 98% | 1019.7 hPa | - | - | - | - |
| 1778025784 | 16.11° C | 98% | 1020.1 hPa | - | - | - | - |
| 1778025483 | 16.11° C | 99% | 1019.7 hPa | - | - | - | - |
| 1778025183 | 16.11° C | 10% | - | - | - | - | - |
| 1778024883 | 16.67° C | 10% | - | - | - | - | - |
| 1778024583 | 16.11° C | 98% | 1019.5 hPa | - | - | - | - |
| 1778024283 | 16.11° C | 95% | 1019.7 hPa | - | - | - | - |
| 1778023983 | 16.11° C | 95% | 1019.4 hPa | - | - | - | - |
| 1778023684 | 16.11° C | 94% | 1019.8 hPa | - | - | - | - |
| 1778023383 | 16.67° C | 94% | 1019.9 hPa | - | - | - | - |
| 1778023084 | 16.67° C | 97% | 1019.3 hPa | - | - | - | - |
| 1778022783 | 16.67° C | 96% | 1019.2 hPa | - | - | - | - |
| 1778022483 | 16.67° C | 94% | 1019.8 hPa | - | - | - | - |
| 1778022183 | 16.67° C | 95% | 1018.7 hPa | - | - | - | - |
| 1778021883 | 16.67° C | 93% | 1019.2 hPa | - | - | - | - |
| 1778021583 | 16.67° C | 93% | 1019.2 hPa | - | - | - | - |
| 1778021283 | 16.67° C | 91% | 1019.2 hPa | - | - | - | - |
| 1778020984 | 16.67° C | 90% | 1019.2 hPa | - | - | - | - |
| 1778020683 | 17.22° C | 89% | 1018.8 hPa | - | - | - | - |
| 1778020384 | 17.22° C | 86% | 1018.8 hPa | - | - | - | - |
| 1778020083 | 17.22° C | 85% | 1018.4 hPa | - | - | - | - |
| 1778019783 | 17.22° C | 83% | 1018.4 hPa | - | - | - | - |
| 1778019484 | 17.22° C | 82% | 1018.3 hPa | - | - | - | - |
* Rain since midnight (hover to see other rain measurements)
** Current wind speed in m/s (hover to see current wind gust speed)